Time;durP1;ratioP1;P1;durP2;ratioP2;P2;SDS_P1;SDS_P2;PMS_P1;PMS_P2;Temp;Humidity;BMP_temperature;BMP_pressure;BME280_temperature;BME280_humidity;BME280_pressure;Samples;Min_cycle;Max_cycle;Signal;HPM_P1;HPM_P2
2024/03/03 00:00:04;;;;;;;20.63;12.35;;;;;;;9.67;68.34;99188.66;4983922;28;20483;-94
2024/03/03 00:02:29;;;;;;;18.92;12.07;;;;;;;9.75;68.29;99193.50;4968188;28;20034;-93
2024/03/03 00:04:55;;;;;;;21.60;12.73;;;;;;;9.89;68.04;99215.31;4968824;28;20029;-94
2024/03/03 00:07:20;;;;;;;19.25;12.40;;;;;;;9.64;68.47;99191.88;4966733;28;20507;-94
2024/03/03 00:09:47;;;;;;;18.92;11.23;;;;;;;9.68;68.08;99190.28;4984852;28;20494;-93
2024/03/03 00:12:12;;;;;;;21.00;11.98;;;;;;;9.54;68.62;99189.97;4967998;28;20030;-95
2024/03/03 00:14:38;;;;;;;17.92;11.02;;;;;;;9.60;68.02;99191.59;4983783;28;20492;-94
2024/03/03 00:17:03;;;;;;;23.73;11.70;;;;;;;9.38;68.28;99166.81;4983762;28;20057;-93
2024/03/03 00:19:29;;;;;;;18.63;11.68;;;;;;;9.53;68.30;99166.88;4966359;28;20034;-93
2024/03/03 00:21:55;;;;;;;21.95;12.10;;;;;;;9.63;68.23;99183.00;4984090;28;20089;-94
2024/03/03 00:24:20;;;;;;;16.75;11.48;;;;;;;9.79;67.98;99193.78;4967553;28;20053;-93
2024/03/03 00:26:46;;;;;;;20.02;11.57;;;;;;;9.65;68.01;99170.13;4982422;28;20119;-95
2024/03/03 00:29:11;;;;;;;22.85;12.88;;;;;;;9.83;67.93;99203.72;4967537;28;20033;-93
2024/03/03 00:31:43;;;;;;;18.90;11.77;;;;;;;9.65;67.90;99175.50;4967103;28;20159;-94
2024/03/03 00:34:09;;;;;;;;;;;;;;;9.74;68.34;99193.78;4966710;28;20038;-94
2024/03/03 00:36:34;;;;;;;20.42;11.02;;;;;;;9.53;68.39;99174.13;4999589;28;19959;-94
2024/03/03 00:39:00;;;;;;;19.08;11.95;;;;;;;9.58;68.75;99171.44;4984233;28;20030;-94
2024/03/03 00:41:25;;;;;;;25.88;12.73;;;;;;;9.54;68.82;99176.53;4966536;28;20033;-94
2024/03/03 00:43:51;;;;;;;21.85;12.43;;;;;;;9.66;68.77;99195.09;4983177;28;20033;-94
2024/03/03 00:46:16;;;;;;;19.70;11.50;;;;;;;9.54;68.76;99163.09;4966508;28;20030;-93
2024/03/03 00:48:42;;;;;;;20.02;12.23;;;;;;;9.61;68.83;99185.16;4967064;28;20042;-94
2024/03/03 00:51:07;;;;;;;22.83;12.48;;;;;;;9.65;68.38;99183.56;4966715;28;20030;-93
2024/03/03 00:53:33;;;;;;;19.23;11.65;;;;;;;9.56;68.31;99158.25;4972587;28;20033;-96
2024/03/03 00:56:04;;;;;;;24.23;13.98;;;;;;;9.36;69.37;99168.97;4980702;28;20042;-96
2024/03/03 00:58:48;;;;;;;;;;;;;;;;;;;;;
2024/03/03 01:01:25;;;;;;;22.33;12.55;;;;;;;9.37;69.34;99175.97;5008097;28;20072;-96
2024/03/03 01:04:52;;;;;;;;;;;;;;;;;;;;;
2024/03/03 01:07:23;;;;;;;19.08;11.02;;;;;;;9.17;69.82;99152.53;5032209;28;20073;-96
2024/03/03 01:09:56;;;;;;;21.40;12.02;;;;;;;9.20;70.04;99163.56;4984610;28;20033;-96
2024/03/03 01:12:35;;;;;;;;;;;;;;;;;;;;;
2024/03/03 01:15:01;;;;;;;22.63;12.70;;;;;;;9.05;70.17;99148.22;4990492;28;20114;-91
2024/03/03 01:17:47;;;;;;;21.02;12.13;;;;;;;9.20;70.25;99160.09;4947022;28;20042;-90
2024/03/03 01:20:13;;;;;;;23.17;12.05;;;;;;;9.10;70.32;99150.09;4926993;28;20038;-90
2024/03/03 01:22:41;;;;;;;21.27;11.75;;;;;;;9.20;70.27;99173.50;4926652;28;20030;-91
2024/03/03 01:25:07;;;;;;;18.77;12.45;;;;;;;8.95;70.73;99131.28;4926432;28;20037;-91
2024/03/03 01:27:33;;;;;;;22.55;12.70;;;;;;;9.14;70.32;99161.94;4926305;28;20054;-91
2024/03/03 01:29:59;;;;;;;19.75;11.85;;;;;;;9.15;70.40;99165.41;4926857;28;20042;-91
2024/03/03 01:32:24;;;;;;;23.35;12.60;;;;;;;8.99;70.54;99143.91;4927974;28;20082;-91
2024/03/03 01:34:51;;;;;;;21.70;13.00;;;;;;;8.98;71.14;99157.59;4927794;28;20053;-91
2024/03/03 01:37:19;;;;;;;25.67;13.93;;;;;;;8.92;70.99;99142.53;4925775;28;20535;-92
2024/03/03 01:39:48;;;;;;;25.50;12.85;;;;;;;8.87;70.83;99146.00;4927250;28;20030;-91
2024/03/03 01:42:16;;;;;;;23.73;13.07;;;;;;;8.95;70.88;99163.50;4925945;28;20042;-91
2024/03/03 01:44:45;;;;;;;23.27;13.30;;;;;;;9.00;71.24;99166.19;4926563;28;20038;-91
2024/03/03 01:47:11;;;;;;;23.20;13.32;;;;;;;8.85;70.88;99148.13;4912069;28;20035;-90
2024/03/03 01:49:37;;;;;;;22.70;12.82;;;;;;;9.05;70.76;99161.66;4934221;28;20133;-91
2024/03/03 01:52:04;;;;;;;23.38;12.88;;;;;;;8.93;71.15;99131.53;4957906;28;20181;-91
2024/03/03 01:54:29;;;;;;;28.48;13.82;;;;;;;9.16;70.46;99164.38;4978033;28;20034;-90
2024/03/03 01:56:55;;;;;;;22.20;12.68;;;;;;;9.09;70.39;99153.88;4945228;28;20065;-90
2024/03/03 01:59:23;;;;;;;22.60;13.02;;;;;;;9.24;70.07;99150.41;4947418;28;20525;-91
2024/03/03 02:01:49;;;;;;;23.77;12.80;;;;;;;9.26;69.72;99143.69;4963011;28;20034;-91
2024/03/03 02:04:14;;;;;;;25.05;14.07;;;;;;;9.37;69.75;99167.91;4945410;28;20053;-91
2024/03/03 02:06:41;;;;;;;24.75;13.73;;;;;;;9.27;69.75;99161.41;4961211;28;20031;-89
2024/03/03 02:09:07;;;;;;;23.77;12.60;;;;;;;9.19;70.00;99147.72;4939579;28;20496;-90
2024/03/03 02:11:32;;;;;;;23.00;13.15;;;;;;;9.33;69.49;99148.00;4951239;28;20035;-91
2024/03/03 02:13:58;;;;;;;23.73;13.45;;;;;;;9.24;69.38;99143.16;4948846;28;20023;-92
2024/03/03 02:16:27;;;;;;;24.73;13.90;;;;;;;9.39;69.23;99157.69;4952248;28;20495;-92
2024/03/03 02:18:52;;;;;;;21.45;12.90;;;;;;;9.38;69.09;99151.53;4948640;28;20031;-93
2024/03/03 02:21:24;;;;;;;22.45;12.80;;;;;;;9.38;69.05;99153.38;4948215;28;20041;-93
2024/03/03 02:23:50;;;;;;;25.63;14.18;;;;;;;9.29;69.21;99137.78;4946322;28;20034;-95
2024/03/03 02:26:21;;;;;;;26.60;14.55;;;;;;;9.26;69.00;99150.97;4947204;28;20038;-92
2024/03/03 02:28:46;;;;;;;22.25;13.60;;;;;;;9.22;69.21;99150.69;5002965;28;20050;-92
2024/03/03 02:31:12;;;;;;;23.60;13.15;;;;;;;9.01;70.49;99136.38;5004710;28;20037;-93
2024/03/03 02:33:37;;;;;;;34.17;18.88;;;;;;;8.99;70.33;99154.63;4991734;28;20027;-92
2024/03/03 02:36:03;;;;;;;27.77;15.05;;;;;;;8.79;71.25;99138.44;4967676;28;20049;-93
2024/03/03 02:38:28;;;;;;;23.90;14.43;;;;;;;8.98;71.33;99169.13;4969934;28;20091;-92
2024/03/03 02:40:54;;;;;;;26.83;15.48;;;;;;;8.83;71.38;99158.34;5001524;28;20041;-91
2024/03/03 02:43:19;;;;;;;29.55;15.57;;;;;;;8.79;71.50;99147.31;4984146;28;20036;-90
2024/03/03 02:45:45;;;;;;;24.33;14.48;;;;;;;8.68;71.09;99127.66;4974525;28;20030;-91
2024/03/03 02:48:10;;;;;;;24.00;15.15;;;;;;;8.77;70.80;99140.59;5001405;28;20072;-92
2024/03/03 02:50:38;;;;;;;23.17;13.65;;;;;;;8.88;70.79;99158.34;4978244;28;20105;-91
2024/03/03 02:53:04;;;;;;;27.17;14.45;;;;;;;8.79;70.89;99159.94;4971788;28;20496;-93
2024/03/03 02:55:29;;;;;;;24.42;14.95;;;;;;;8.81;71.26;99173.91;4958970;28;20121;-93
2024/03/03 02:57:55;;;;;;;24.50;13.68;;;;;;;8.66;71.36;99151.28;5001076;28;20022;-91
2024/03/03 03:00:20;;;;;;;23.85;15.07;;;;;;;8.84;71.09;99178.72;4984518;28;20022;-93
2024/03/03 03:02:49;;;;;;;26.83;14.68;;;;;;;8.75;71.20;99164.19;4983944;28;20085;-92
2024/03/03 03:05:15;;;;;;;25.52;13.43;;;;;;;8.67;70.95;99152.91;5017466;28;20022;-92
2024/03/03 03:07:40;;;;;;;24.58;14.77;;;;;;;8.70;71.22;99154.25;4982303;28;20014;-91
2024/03/03 03:10:07;;;;;;;25.92;14.27;;;;;;;8.74;71.18;99158.03;4964759;28;20026;-92
2024/03/03 03:12:32;;;;;;;25.95;14.07;;;;;;;8.79;70.83;99163.41;4965452;28;20015;-92
2024/03/03 03:14:58;;;;;;;29.98;15.13;;;;;;;8.95;71.12;99180.41;4964721;28;20138;-94
2024/03/03 03:17:23;;;;;;;22.15;14.30;;;;;;;8.86;70.42;99160.47;4963782;28;20031;-91
2024/03/03 03:19:49;;;;;;;24.60;14.38;;;;;;;8.93;70.87;99163.75;4965108;28;20061;-92
2024/03/03 03:22:15;;;;;;;24.13;14.27;;;;;;;9.04;70.60;99189.56;4964830;28;20027;-92
2024/03/03 03:24:41;;;;;;;22.20;13.93;;;;;;;8.79;71.52;99173.34;4965215;28;20105;-92
2024/03/03 03:27:07;;;;;;;23.10;14.50;;;;;;;8.90;71.06;99193.78;4978518;28;20505;-93
2024/03/03 03:29:35;;;;;;;22.27;14.52;;;;;;;8.88;71.04;99183.34;4961880;28;20026;-93
2024/03/03 03:32:00;;;;;;;28.35;14.48;;;;;;;8.99;70.81;99192.22;4962171;28;20097;-92
2024/03/03 03:34:26;;;;;;;28.13;14.82;;;;;;;8.88;70.38;99169.91;4960421;28;20455;-92
2024/03/03 03:36:51;;;;;;;23.50;14.77;;;;;;;8.88;70.24;99175.28;4961560;28;20023;-92
2024/03/03 03:39:17;;;;;;;24.25;14.52;;;;;;;8.72;70.95;99167.44;4962103;28;20122;-92
2024/03/03 03:41:46;;;;;;;24.95;14.55;;;;;;;8.77;70.44;99168.22;4968738;28;20092;-92
2024/03/03 03:44:15;;;;;;;24.40;14.65;;;;;;;8.66;71.23;99171.94;4964275;28;20006;-92
2024/03/03 03:46:41;;;;;;;21.00;14.02;;;;;;;8.75;71.08;99178.41;4951912;28;20022;-92
2024/03/03 03:49:11;;;;;;;28.25;15.05;;;;;;;8.90;71.41;99200.00;4952337;28;20365;-93
2024/03/03 03:51:37;;;;;;;24.27;14.20;;;;;;;8.87;70.78;99186.28;4969712;28;20030;-92
2024/03/03 03:54:03;;;;;;;24.98;14.70;;;;;;;8.77;71.40;99187.03;4945131;28;20027;-93
2024/03/03 03:56:32;;;;;;;25.95;14.80;;;;;;;8.79;71.24;99184.88;4961053;28;20049;-92
2024/03/03 03:58:58;;;;;;;25.00;15.45;;;;;;;8.74;71.43;99181.38;4945611;28;20023;-93
2024/03/03 04:01:25;;;;;;;27.63;15.45;;;;;;;8.81;71.58;99188.13;4944299;28;20108;-93
2024/03/03 04:03:50;;;;;;;26.58;14.30;;;;;;;8.84;70.87;99194.84;4945074;28;20023;-93
2024/03/03 04:06:16;;;;;;;27.08;14.95;;;;;;;8.87;71.07;99194.31;4959715;28;20084;-93
2024/03/03 04:08:41;;;;;;;22.23;14.35;;;;;;;8.83;70.98;99177.13;4961353;28;20026;-93
2024/03/03 04:11:07;;;;;;;25.20;14.35;;;;;;;8.70;71.54;99181.91;4960545;28;20018;-93
2024/03/03 04:13:34;;;;;;;24.90;14.32;;;;;;;8.72;71.48;99186.22;4976420;28;20058;-93
2024/03/03 04:16:00;;;;;;;24.27;14.73;;;;;;;8.83;71.41;99195.91;4944506;28;20449;-92
2024/03/03 04:18:26;;;;;;;25.60;14.00;;;;;;;8.72;72.06;99184.31;4945505;28;20038;-94
2024/03/03 04:20:51;;;;;;;27.73;14.60;;;;;;;8.57;71.59;99177.00;4960166;28;20046;-93
2024/03/03 04:23:17;;;;;;;26.30;15.65;;;;;;;8.47;72.49;99163.53;4961032;28;20018;-93
2024/03/03 04:25:43;;;;;;;27.27;14.43;;;;;;;8.70;71.75;99192.63;4943760;28;20030;-94
2024/03/03 04:28:12;;;;;;;24.95;14.95;;;;;;;8.79;71.90;99210.94;4982885;28;20073;-94
2024/03/03 04:30:38;;;;;;;27.08;14.52;;;;;;;8.75;72.29;99207.94;4967501;28;20029;-93
2024/03/03 04:33:03;;;;;;;25.52;14.60;;;;;;;8.54;72.25;99180.19;4968995;28;20093;-93
2024/03/03 04:35:29;;;;;;;25.60;14.65;;;;;;;8.56;72.92;99198.72;4986289;28;20029;-92
2024/03/03 04:37:54;;;;;;;27.73;15.15;;;;;;;8.64;72.50;99206.28;4965502;28;20025;-93
2024/03/03 04:40:20;;;;;;;23.63;14.95;;;;;;;8.53;72.46;99185.81;4970000;28;20026;-93
2024/03/03 04:42:46;;;;;;;26.52;14.48;;;;;;;8.62;72.45;99195.81;4963916;28;20026;-93
2024/03/03 04:45:11;;;;;;;32.70;15.45;;;;;;;8.52;72.78;99197.63;4947024;28;20023;-93
2024/03/03 04:47:37;;;;;;;26.35;15.13;;;;;;;8.37;72.69;99182.22;4963644;28;20416;-93
2024/03/03 04:50:03;;;;;;;26.63;15.43;;;;;;;8.37;73.26;99201.78;4972401;28;20035;-92
2024/03/03 04:52:28;;;;;;;24.27;14.85;;;;;;;8.56;73.45;99214.81;4959447;28;20509;-94
2024/03/03 04:54:54;;;;;;;23.98;15.00;;;;;;;8.42;73.08;99201.84;4964364;28;20026;-92
2024/03/03 04:57:20;;;;;;;30.05;16.33;;;;;;;8.33;73.47;99202.56;4982423;28;20021;-93
2024/03/03 04:59:45;;;;;;;31.27;16.23;;;;;;;8.33;73.54;99205.25;4966588;28;20132;-93
2024/03/03 05:02:11;;;;;;;25.80;14.77;;;;;;;8.37;73.85;99219.78;4982474;28;20029;-93
2024/03/03 05:04:37;;;;;;;27.98;15.43;;;;;;;8.21;73.83;99200.88;4982468;28;20507;-93
2024/03/03 05:07:06;;;;;;;29.75;15.05;;;;;;;8.15;74.18;99198.41;4966900;28;20022;-92
2024/03/03 05:09:31;;;;;;;26.40;15.27;;;;;;;8.16;74.08;99205.41;4967163;28;20626;-93
2024/03/03 05:11:57;;;;;;;25.38;14.77;;;;;;;8.22;74.29;99207.06;4981834;28;20030;-92
2024/03/03 05:14:25;;;;;;;26.30;15.00;;;;;;;8.25;73.94;99209.22;4966318;28;20030;-93
2024/03/03 05:16:50;;;;;;;30.23;17.67;;;;;;;8.08;74.56;99196.75;4966107;28;20025;-92
2024/03/03 05:19:20;;;;;;;28.95;15.02;;;;;;;8.21;73.99;99214.28;4985702;28;20018;-93
2024/03/03 05:21:46;;;;;;;29.10;15.85;;;;;;;8.16;74.11;99213.44;4967289;28;20025;-91
2024/03/03 05:24:15;;;;;;;24.65;15.07;;;;;;;8.17;74.00;99215.84;4965346;28;20037;-92
2024/03/03 05:26:40;;;;;;;26.15;15.52;;;;;;;8.36;74.31;99243.09;4966629;28;20025;-93
2024/03/03 05:29:05;;;;;;;25.75;15.52;;;;;;;8.13;74.47;99222.00;4966668;28;20036;-92
2024/03/03 05:31:35;;;;;;;27.10;13.73;;;;;;;8.06;74.28;99220.34;4981300;28;20033;-93
2024/03/03 05:34:00;;;;;;;27.52;15.52;;;;;;;7.96;74.55;99206.84;4965656;28;20100;-93
2024/03/03 05:36:26;;;;;;;27.67;15.13;;;;;;;8.00;74.43;99213.31;4982261;28;20030;-91
2024/03/03 05:38:51;;;;;;;22.13;14.82;;;;;;;8.05;74.58;99223.25;4981872;28;20034;-92
2024/03/03 05:41:17;;;;;;;26.58;16.05;;;;;;;8.19;74.26;99229.03;4965167;28;20030;-92
2024/03/03 05:43:42;;;;;;;26.27;15.35;;;;;;;8.15;74.50;99207.25;4980811;28;20033;-94
2024/03/03 05:46:08;;;;;;;30.08;15.50;;;;;;;8.20;74.11;99220.72;4965755;28;20030;-91
2024/03/03 05:48:33;;;;;;;25.35;15.20;;;;;;;8.32;74.31;99230.44;4966016;28;20049;-92
2024/03/03 05:50:59;;;;;;;31.48;14.57;;;;;;;8.29;74.49;99226.41;4965169;28;20100;-92
2024/03/03 05:53:24;;;;;;;30.45;16.20;;;;;;;8.40;73.89;99238.03;4965557;28;20022;-92
2024/03/03 05:55:50;;;;;;;26.33;15.85;;;;;;;8.24;74.66;99223.72;4965217;28;20037;-92
2024/03/03 05:58:15;;;;;;;30.08;16.67;;;;;;;8.40;73.91;99232.66;4965419;28;20049;-92
2024/03/03 06:00:41;;;;;;;28.58;15.90;;;;;;;8.39;73.29;99229.19;4965957;28;20033;-92
2024/03/03 06:03:06;;;;;;;26.75;15.45;;;;;;;8.25;73.83;99203.84;4965407;28;20022;-92
2024/03/03 06:05:32;;;;;;;26.75;14.10;;;;;;;8.32;73.39;99212.47;4966269;28;20033;-92
2024/03/03 06:07:57;;;;;;;53.38;16.25;;;;;;;8.68;73.10;99253.03;4966128;28;20030;-92
2024/03/03 06:10:23;;;;;;;26.25;14.07;;;;;;;8.51;72.97;99229.03;4966142;28;20093;-92
2024/03/03 06:12:51;;;;;;;26.38;14.50;;;;;;;8.51;73.08;99223.66;4966808;28;20061;-91
2024/03/03 06:15:17;;;;;;;30.17;14.73;;;;;;;8.49;72.92;99225.78;4997763;28;20407;-92
2024/03/03 06:17:43;;;;;;;30.13;15.32;;;;;;;8.52;72.49;99222.59;4967392;28;20026;-91
2024/03/03 06:20:08;;;;;;;36.55;15.10;;;;;;;8.67;72.89;99243.34;4965560;28;20161;-92
2024/03/03 06:22:38;;;;;;;29.33;14.45;;;;;;;8.59;73.00;99247.34;4965613;28;20029;-90
2024/03/03 06:25:04;;;;;;;29.67;14.30;;;;;;;8.49;73.24;99244.56;4966779;28;20030;-92
2024/03/03 06:27:30;;;;;;;26.38;15.70;;;;;;;8.46;73.60;99231.66;4961953;28;20141;-92
2024/03/03 06:29:55;;;;;;;23.90;15.45;;;;;;;8.54;72.77;99243.78;4979091;28;20034;-92
2024/03/03 06:32:21;;;;;;;26.33;14.82;;;;;;;8.53;73.15;99243.00;4962434;28;20081;-91
2024/03/03 06:34:48;;;;;;;28.73;15.90;;;;;;;8.37;73.20;99211.72;4961005;28;20035;-92
2024/03/03 06:37:15;;;;;;;27.75;15.88;;;;;;;8.51;72.71;99223.66;4978291;28;20146;-93
2024/03/03 06:39:42;;;;;;;28.67;15.23;;;;;;;8.62;72.74;99233.38;4978625;28;20037;-93
2024/03/03 06:42:08;;;;;;;27.88;15.10;;;;;;;8.38;72.79;99214.13;4962306;28;20027;-93
2024/03/03 06:44:33;;;;;;;24.98;14.73;;;;;;;8.48;72.93;99237.56;4962814;28;20030;-93
2024/03/03 06:46:59;;;;;;;27.92;14.48;;;;;;;8.70;71.64;99245.50;4977008;28;20038;-93
2024/03/03 06:49:25;;;;;;;24.33;13.57;;;;;;;8.79;71.53;99240.47;4978969;28;20041;-94
2024/03/03 06:51:50;;;;;;;22.50;13.25;;;;;;;8.95;71.04;99238.69;4963165;28;20477;-92
2024/03/03 06:54:16;;;;;;;21.20;12.73;;;;;;;9.09;70.21;99231.75;4980630;28;20041;-92
2024/03/03 06:56:41;;;;;;;25.10;12.23;;;;;;;9.30;69.87;99246.88;4965729;28;20030;-92
2024/03/03 06:59:07;;;;;;;21.52;12.07;;;;;;;9.33;69.03;99245.53;4962964;28;20101;-93
2024/03/03 07:01:32;;;;;;;22.25;12.75;;;;;;;9.35;68.88;99235.34;4962743;28;20034;-93
2024/03/03 07:04:10;;;;;;;25.80;13.27;;;;;;;9.46;68.46;99238.88;4978736;28;20023;-93
2024/03/03 07:06:36;;;;;;;25.30;13.02;;;;;;;9.59;68.17;99235.69;4948454;28;20034;-92
2024/03/03 07:09:02;;;;;;;23.55;13.70;;;;;;;9.53;67.62;99227.88;4962700;28;20022;-93
2024/03/03 07:11:28;;;;;;;18.20;11.35;;;;;;;9.64;67.54;99232.19;4946085;28;20030;-91
2024/03/03 07:13:53;;;;;;;18.38;11.50;;;;;;;9.71;67.29;99241.63;4975145;28;20031;-92
2024/03/03 07:16:19;;;;;;;23.55;13.52;;;;;;;9.87;66.30;99237.06;4964593;28;20042;-93
2024/03/03 07:18:44;;;;;;;20.38;11.00;;;;;;;9.95;65.55;99221.50;4962315;28;20034;-92
2024/03/03 07:21:10;;;;;;;20.33;12.65;;;;;;;9.98;65.46;99219.09;4961432;28;20089;-92
2024/03/03 07:23:36;;;;;;;23.77;12.18;;;;;;;10.28;65.47;99253.25;4964644;28;20030;-92
2024/03/03 07:26:01;;;;;;;19.38;12.25;;;;;;;10.37;64.69;99253.53;4980226;28;20026;-93
2024/03/03 07:28:27;;;;;;;21.15;12.90;;;;;;;10.39;64.40;99253.28;4953097;28;20042;-92
2024/03/03 07:30:52;;;;;;;27.63;12.82;;;;;;;10.29;64.04;99228.00;4964704;28;20034;-91
2024/03/03 07:33:20;;;;;;;36.92;12.77;;;;;;;10.41;64.69;99249.22;4952115;28;20485;-92
2024/03/03 07:35:45;;;;;;;18.83;12.18;;;;;;;10.54;64.13;99236.31;4932277;28;20126;-92
2024/03/03 07:38:11;;;;;;;23.02;13.40;;;;;;;10.76;63.12;99239.50;4929426;28;20018;-92
2024/03/03 07:40:37;;;;;;;20.27;12.68;;;;;;;10.90;63.15;99247.81;4930528;28;20030;-93
2024/03/03 07:43:05;;;;;;;24.42;13.20;;;;;;;10.84;62.55;99238.94;4930074;28;20023;-92
2024/03/03 07:45:31;;;;;;;23.58;13.65;;;;;;;11.11;61.31;99243.97;4929901;28;20027;-93
2024/03/03 07:47:57;;;;;;;24.15;14.23;;;;;;;11.13;61.62;99238.31;4946583;28;20062;-92
2024/03/03 07:50:22;;;;;;;22.42;13.25;;;;;;;11.17;62.51;99247.47;4945745;28;20050;-92
2024/03/03 07:52:48;;;;;;;23.65;13.55;;;;;;;11.17;62.43;99241.28;4944971;28;20030;-91
2024/03/03 07:55:13;;;;;;;24.00;13.35;;;;;;;11.41;61.76;99249.50;4946139;28;20035;-91
2024/03/03 07:57:41;;;;;;;25.42;12.63;;;;;;;11.59;60.96;99259.66;4929188;28;20040;-94
2024/03/03 08:00:07;;;;;;;23.73;12.80;;;;;;;11.71;60.20;99252.06;4962361;28;20037;-91
2024/03/03 08:02:33;;;;;;;20.77;12.10;;;;;;;11.69;60.22;99239.94;4930166;28;20033;-92
2024/03/03 08:04:59;;;;;;;28.92;13.75;;;;;;;11.73;60.08;99249.09;4928828;28;20026;-94
2024/03/03 08:07:28;;;;;;;27.05;12.77;;;;;;;11.91;59.30;99244.94;4945626;28;20030;-93
2024/03/03 08:09:54;;;;;;;22.42;13.40;;;;;;;12.09;58.47;99238.88;4930716;28;20046;-91
2024/03/03 08:12:19;;;;;;;20.35;13.00;;;;;;;12.30;57.95;99255.69;4944075;28;20037;-93
2024/03/03 08:14:45;;;;;;;26.70;13.27;;;;;;;12.21;57.62;99230.41;4945057;28;20035;-91
2024/03/03 08:17:13;;;;;;;18.98;11.32;;;;;;;12.48;56.97;99256.91;4945425;28;20037;-93
2024/03/03 08:19:39;;;;;;;18.02;11.07;;;;;;;12.46;57.26;99269.09;4946037;28;20054;-92
2024/03/03 08:22:04;;;;;;;19.13;12.90;;;;;;;12.65;55.26;99247.59;4931166;28;20026;-91
2024/03/03 08:24:32;;;;;;;21.80;12.20;;;;;;;12.70;54.59;99258.31;4949749;28;20042;-91
2024/03/03 08:26:57;;;;;;;19.10;11.55;;;;;;;12.66;54.65;99246.50;4929899;28;20051;-93
2024/03/03 08:29:23;;;;;;;20.20;11.43;;;;;;;12.68;55.17;99247.81;4962071;28;20097;-93
2024/03/03 08:31:48;;;;;;;16.45;11.75;;;;;;;12.87;54.66;99247.91;4960684;28;20385;-93
2024/03/03 08:34:14;;;;;;;17.67;11.27;;;;;;;12.94;54.35;99242.94;4961401;28;20027;-92
2024/03/03 08:36:39;;;;;;;17.00;11.00;;;;;;;13.03;54.32;99250.41;4960007;28;20485;-92
2024/03/03 08:39:05;;;;;;;18.75;11.00;;;;;;;13.02;54.57;99246.13;4976895;28;20089;-91
2024/03/03 08:41:33;;;;;;;18.88;10.88;;;;;;;13.05;54.89;99261.75;4976969;28;20050;-91
2024/03/03 08:43:59;;;;;;;17.63;11.35;;;;;;;12.87;55.24;99253.31;4976478;28;20011;-92
2024/03/03 08:46:24;;;;;;;18.42;11.18;;;;;;;12.79;55.81;99243.13;4977680;28;20165;-93
2024/03/03 08:48:50;;;;;;;18.60;10.73;;;;;;;12.97;55.29;99252.41;4976464;28;20082;-91
2024/03/03 08:51:15;;;;;;;14.75;10.75;;;;;;;12.88;55.38;99235.97;4976396;28;20106;-92
2024/03/03 08:53:41;;;;;;;20.77;11.13;;;;;;;12.78;55.43;99249.59;4977675;28;20018;-93
2024/03/03 08:56:09;;;;;;;19.73;11.85;;;;;;;12.56;56.48;99252.00;4976079;28;20473;-92
2024/03/03 08:58:35;;;;;;;23.88;12.32;;;;;;;12.42;56.79;99249.16;4960651;28;20041;-92
2024/03/03 09:01:00;;;;;;;16.90;11.40;;;;;;;12.54;56.48;99244.19;4976735;28;20024;-93
2024/03/03 09:03:27;;;;;;;21.13;14.38;;;;;;;12.56;56.59;99244.69;4975681;28;20026;-94
2024/03/03 09:05:52;;;;;;;25.45;13.68;;;;;;;12.59;56.75;99251.41;4976856;28;20031;-93
2024/03/03 09:08:18;;;;;;;23.23;13.82;;;;;;;12.49;56.94;99255.00;4977529;28;20026;-93
2024/03/03 09:10:43;;;;;;;20.27;13.38;;;;;;;12.33;56.83;99238.97;4976474;28;20061;-92
2024/03/03 09:13:09;;;;;;;21.45;14.57;;;;;;;12.41;57.04;99253.75;4992734;28;20023;-92
2024/03/03 09:15:34;;;;;;;24.40;14.07;;;;;;;12.25;57.61;99241.47;4974800;28;20030;-93
2024/03/03 09:18:00;;;;;;;26.17;14.18;;;;;;;12.29;57.68;99254.09;4977309;28;20022;-93
2024/03/03 09:20:25;;;;;;;25.88;13.23;;;;;;;12.26;57.47;99238.47;4961077;28;20022;-92
2024/03/03 09:22:51;;;;;;;20.70;13.73;;;;;;;12.33;56.90;99244.34;4976093;28;20046;-92
2024/03/03 09:25:18;;;;;;;19.95;12.88;;;;;;;12.41;57.16;99255.63;4977190;28;20030;-93
2024/03/03 09:27:44;;;;;;;22.05;12.93;;;;;;;12.47;56.58;99252.63;4977271;28;20046;-93
2024/03/03 09:30:10;;;;;;;24.80;13.80;;;;;;;12.54;56.59;99254.97;4977288;28;20062;-94
2024/03/03 09:32:36;;;;;;;22.73;13.88;;;;;;;12.52;56.49;99254.47;4978450;28;20473;-94
2024/03/03 09:35:01;;;;;;;21.17;13.65;;;;;;;12.31;57.08;99246.53;4975787;28;20027;-93
2024/03/03 09:37:27;;;;;;;23.25;13.93;;;;;;;12.33;57.24;99230.84;4976551;28;20412;-92
2024/03/03 09:39:52;;;;;;;19.50;13.50;;;;;;;12.50;56.99;99245.84;4975469;28;20025;-93
2024/03/03 09:42:18;;;;;;;21.02;13.18;;;;;;;12.58;56.64;99236.31;4975503;28;20019;-92
2024/03/03 09:44:44;;;;;;;24.60;14.13;;;;;;;12.88;56.36;99263.00;4975613;28;20027;-93
2024/03/03 09:47:12;;;;;;;21.08;13.80;;;;;;;12.74;56.19;99241.28;4975388;28;20589;-94
2024/03/03 09:50:05;;;;;;;22.55;13.57;;;;;;;12.88;56.33;99259.50;4976052;28;20106;-91
2024/03/03 09:52:30;;;;;;;21.77;12.32;;;;;;;13.13;55.47;99266.53;4940227;29;20035;-91
2024/03/03 09:54:57;;;;;;;21.00;13.18;;;;;;;12.93;55.12;99244.06;4939724;29;20042;-92
2024/03/03 09:57:23;;;;;;;24.50;13.32;;;;;;;12.88;55.79;99249.50;4923772;29;20526;-92
2024/03/03 09:59:52;;;;;;;21.67;13.15;;;;;;;12.74;55.79;99230.47;4940254;29;20038;-92
2024/03/03 10:02:18;;;;;;;18.88;12.23;;;;;;;13.05;54.34;99237.44;4924232;29;20031;-93
2024/03/03 10:04:46;;;;;;;19.10;11.52;;;;;;;13.31;53.10;99232.56;4924854;29;20410;-91
2024/03/03 10:07:18;;;;;;;18.88;11.07;;;;;;;13.52;52.94;99233.88;4924557;29;20465;-92
2024/03/03 10:09:48;;;;;;;22.02;11.48;;;;;;;13.70;52.45;99221.47;4939560;29;20481;-92
2024/03/03 10:12:14;;;;;;;19.45;11.80;;;;;;;13.95;52.35;99249.28;4924742;29;20131;-91
2024/03/03 10:14:39;;;;;;;22.08;12.73;;;;;;;13.86;51.73;99218.53;4924072;29;20043;-93
2024/03/03 10:17:05;;;;;;;19.98;11.75;;;;;;;13.78;51.69;99205.66;4922353;29;20090;-92
2024/03/03 10:19:30;;;;;;;19.83;12.30;;;;;;;13.83;51.63;99219.13;4922919;29;20031;-93
2024/03/03 10:21:56;;;;;;;20.25;11.90;;;;;;;13.87;51.41;99212.03;4922402;29;20027;-91
2024/03/03 10:24:23;;;;;;;18.00;11.73;;;;;;;13.91;51.02;99221.97;4955247;28;20039;-91
2024/03/03 10:26:52;;;;;;;19.15;12.13;;;;;;;13.88;51.50;99221.75;4994645;28;20027;-92
2024/03/03 10:29:19;;;;;;;19.13;11.30;;;;;;;13.78;51.19;99205.66;4965835;28;20050;-91
2024/03/03 10:31:46;;;;;;;20.60;13.18;;;;;;;13.54;51.83;99209.25;4967385;28;20023;-92
2024/03/03 10:34:11;;;;;;;27.73;11.93;;;;;;;13.53;52.74;99216.56;4966706;28;20499;-93
2024/03/03 10:36:37;;;;;;;25.35;12.52;;;;;;;13.34;53.08;99202.22;4965893;28;20122;-93
2024/03/03 10:39:02;;;;;;;22.15;12.77;;;;;;;13.24;53.24;99189.63;4965744;28;20037;-92
2024/03/03 10:41:28;;;;;;;19.42;12.70;;;;;;;13.38;53.00;99197.03;4949632;28;20074;-92
2024/03/03 10:43:53;;;;;;;23.58;13.13;;;;;;;13.44;52.93;99183.16;4965879;28;20520;-93
2024/03/03 10:46:20;;;;;;;20.13;12.02;;;;;;;13.63;51.90;99183.16;4966559;28;20101;-93
2024/03/03 10:48:46;;;;;;;17.73;12.07;;;;;;;13.59;52.55;99195.66;4965093;28;20034;-91
2024/03/03 10:51:19;;;;;;;22.33;13.20;;;;;;;13.56;53.07;99188.13;4966533;28;20034;-91
2024/03/03 10:53:45;;;;;;;20.30;13.23;;;;;;;13.54;52.88;99183.00;4965557;28;20037;-91
2024/03/03 10:56:11;;;;;;;21.98;12.82;;;;;;;13.71;52.42;99179.78;4965543;28;20125;-92
2024/03/03 10:58:37;;;;;;;23.75;13.85;;;;;;;13.62;52.57;99168.03;4966753;28;20382;-92
2024/03/03 11:01:03;;;;;;;24.73;14.20;;;;;;;13.38;53.22;99165.38;4965740;28;20037;-92
2024/03/03 11:03:28;;;;;;;24.42;13.48;;;;;;;13.40;53.57;99179.41;4965962;28;20544;-92
2024/03/03 11:05:53;;;;;;;17.35;12.90;;;;;;;13.49;53.43;99166.88;4982771;28;20036;-92
2024/03/03 11:08:19;;;;;;;21.77;13.60;;;;;;;13.60;53.14;99191.06;4984889;28;20056;-92
2024/03/03 11:10:45;;;;;;;25.42;13.85;;;;;;;13.19;53.71;99173.47;4969659;28;20033;-91
2024/03/03 11:13:10;;;;;;;18.83;12.70;;;;;;;13.43;53.54;99159.91;4985344;28;20030;-92
2024/03/03 11:15:36;;;;;;;20.10;13.27;;;;;;;13.80;52.85;99185.34;4985318;28;20472;-93
2024/03/03 11:18:03;;;;;;;24.02;13.52;;;;;;;13.84;52.05;99156.59;4987722;28;20058;-92
2024/03/03 11:20:35;;;;;;;22.40;13.48;;;;;;;14.07;51.70;99170.28;4984828;28;20288;-93
2024/03/03 11:23:14;;;;;;;24.50;13.05;;;;;;;14.27;51.37;99177.25;4985643;28;20028;-90